createdAt,value
2023-05-17T00:02:08.069Z,6.30
2023-05-17T00:04:35.744Z,6.30
2023-05-17T00:07:02.917Z,6.30
2023-05-17T00:09:30.418Z,6.30
2023-05-17T00:11:57.265Z,6.20
2023-05-17T00:14:24.226Z,6.20
2023-05-17T00:16:52.624Z,6.20
2023-05-17T00:19:19.880Z,6.10
2023-05-17T00:21:46.951Z,6.10
2023-05-17T00:24:13.917Z,6.10
2023-05-17T00:26:40.911Z,6.10
2023-05-17T00:29:08.105Z,6.10
2023-05-17T00:31:35.633Z,6.10
2023-05-17T00:34:02.650Z,6.10
2023-05-17T00:36:29.588Z,6.10
2023-05-17T00:38:56.456Z,6.10
2023-05-17T00:41:23.367Z,6.00
2023-05-17T00:43:50.433Z,6.00
2023-05-17T00:46:17.288Z,6.00
2023-05-17T00:48:44.711Z,6.00
2023-05-17T00:51:12.811Z,6.00
2023-05-17T00:53:39.703Z,6.00
2023-05-17T00:56:06.950Z,6.00
2023-05-17T00:58:34.013Z,6.00
2023-05-17T01:01:01.801Z,6.00
2023-05-17T01:03:29.109Z,6.00
2023-05-17T01:05:56.167Z,6.00
2023-05-17T01:08:23.113Z,6.00
2023-05-17T01:11:22.948Z,5.90
2023-05-17T01:13:58.994Z,5.80
2023-05-17T01:16:48.819Z,5.80
2023-05-17T01:19:51.142Z,5.80
2023-05-17T01:22:28.808Z,5.80
2023-05-17T01:25:08.348Z,5.80
2023-05-17T01:27:38.918Z,5.80
2023-05-17T01:30:09.559Z,5.90
2023-05-17T01:32:37.146Z,5.80
2023-05-17T01:35:07.760Z,5.80
2023-05-17T01:37:35.507Z,5.80
2023-05-17T01:40:02.644Z,5.80
2023-05-17T01:42:33.665Z,5.80
2023-05-17T01:45:06.224Z,5.80
2023-05-17T01:47:47.945Z,5.80
2023-05-17T01:50:17.708Z,5.80
2023-05-17T01:52:52.858Z,5.70
2023-05-17T01:55:46.643Z,5.70
2023-05-17T01:58:14.392Z,5.70
2023-05-17T02:00:44.830Z,5.70
2023-05-17T02:03:21.760Z,5.70
2023-05-17T02:05:52.701Z,5.60
2023-05-17T02:08:19.696Z,5.60
2023-05-17T02:10:46.773Z,5.50
2023-05-17T02:13:13.786Z,5.50
2023-05-17T02:15:40.828Z,5.50
2023-05-17T02:18:07.874Z,5.40
2023-05-17T02:20:34.944Z,5.40
2023-05-17T02:23:01.934Z,5.40
2023-05-17T02:25:29.148Z,5.40
2023-05-17T02:27:56.262Z,5.30
2023-05-17T02:30:23.209Z,5.30
2023-05-17T02:32:51.674Z,5.30
2023-05-17T02:35:18.754Z,5.20
2023-05-17T02:37:45.776Z,5.20
2023-05-17T02:40:13.262Z,5.20
2023-05-17T02:42:40.257Z,5.20
2023-05-17T02:45:08.152Z,5.10
2023-05-17T02:47:35.360Z,5.10
2023-05-17T02:50:02.447Z,5.00
2023-05-17T02:52:31.139Z,5.00
2023-05-17T02:54:58.310Z,5.00
2023-05-17T02:57:25.469Z,5.00
2023-05-17T02:59:52.939Z,5.00
2023-05-17T03:02:19.913Z,4.90
2023-05-17T03:04:47.118Z,4.90
2023-05-17T03:07:14.056Z,4.90
2023-05-17T03:09:42.922Z,4.90
2023-05-17T03:12:10.171Z,4.90
2023-05-17T03:14:37.265Z,4.90
2023-05-17T03:17:04.519Z,4.90
2023-05-17T03:19:34.020Z,4.80
2023-05-17T03:22:00.957Z,4.80
2023-05-17T03:24:27.979Z,4.80
2023-05-17T03:26:54.947Z,4.80
2023-05-17T03:29:22.436Z,4.80
2023-05-17T03:31:49.922Z,4.80
2023-05-17T03:34:16.965Z,4.80
2023-05-17T03:36:43.957Z,4.80
2023-05-17T03:39:11.429Z,4.80
2023-05-17T03:41:42.073Z,4.80
2023-05-17T03:44:09.430Z,4.80
2023-05-17T03:46:36.898Z,4.80
2023-05-17T03:49:04.762Z,4.80
2023-05-17T03:51:33.617Z,4.90
2023-05-17T03:54:01.580Z,4.90
2023-05-17T03:56:31.735Z,4.90
2023-05-17T03:58:58.819Z,4.90
2023-05-17T04:01:25.912Z,4.90
2023-05-17T04:03:52.930Z,5.00
2023-05-17T04:06:21.572Z,5.30
2023-05-17T04:08:48.754Z,5.60
2023-05-17T04:11:15.615Z,6.00
2023-05-17T04:13:43.780Z,6.40
2023-05-17T04:16:11.047Z,6.60
2023-05-17T04:18:41.174Z,6.90
2023-05-17T04:21:09.333Z,7.10
2023-05-17T04:23:37.185Z,7.30
2023-05-17T04:26:06.127Z,7.60
2023-05-17T04:28:35.932Z,7.90
2023-05-17T04:31:08.382Z,8.10
2023-05-17T04:33:36.979Z,8.20
2023-05-17T04:36:05.380Z,8.30
2023-05-17T04:38:33.178Z,8.40
2023-05-17T04:41:04.758Z,8.40
2023-05-17T04:43:33.962Z,8.40
2023-05-17T04:46:02.669Z,8.50
2023-05-17T04:48:32.586Z,8.50
2023-05-17T04:51:04.442Z,8.60
2023-05-17T04:53:32.119Z,8.70
2023-05-17T04:56:04.144Z,8.60
2023-05-17T04:58:32.045Z,8.60
2023-05-17T05:01:00.887Z,8.80
2023-05-17T05:03:27.909Z,8.80
2023-05-17T05:05:55.605Z,8.80
2023-05-17T05:08:23.195Z,8.90
2023-05-17T05:10:51.548Z,8.90
2023-05-17T05:13:19.374Z,9.10
2023-05-17T05:15:46.334Z,9.10
2023-05-17T05:18:13.327Z,9.10
2023-05-17T05:20:40.381Z,9.10
2023-05-17T05:23:07.546Z,9.10
2023-05-17T05:25:38.009Z,9.30
2023-05-17T05:28:06.265Z,9.20
2023-05-17T05:30:36.429Z,9.10
2023-05-17T05:33:04.746Z,9.00
2023-05-17T05:35:31.982Z,9.10
2023-05-17T05:38:00.039Z,9.20
2023-05-17T05:40:27.783Z,9.20
2023-05-17T05:42:55.615Z,9.30
2023-05-17T05:45:22.610Z,9.20
2023-05-17T05:47:52.222Z,9.20
2023-05-17T05:50:19.346Z,9.50
2023-05-17T05:52:49.997Z,9.70
2023-05-17T05:55:17.029Z,9.80
2023-05-17T05:57:44.133Z,9.90
2023-05-17T06:00:11.971Z,9.80
2023-05-17T06:02:41.637Z,9.70
2023-05-17T06:05:09.433Z,9.50
2023-05-17T06:07:37.455Z,9.60
2023-05-17T06:10:04.489Z,9.70
2023-05-17T06:12:31.370Z,9.90
2023-05-17T06:14:58.197Z,9.80
2023-05-17T06:17:25.187Z,9.80
2023-05-17T06:19:52.688Z,9.90
2023-05-17T06:22:19.594Z,9.90
2023-05-17T06:24:46.531Z,9.90
2023-05-17T06:27:13.463Z,9.90
2023-05-17T06:29:40.310Z,9.90
2023-05-17T06:32:07.466Z,9.80
2023-05-17T06:34:34.521Z,9.70
2023-05-17T06:37:01.571Z,9.70
2023-05-17T06:39:28.503Z,9.70
2023-05-17T06:41:55.813Z,9.80
2023-05-17T06:44:22.647Z,9.80
2023-05-17T06:46:49.545Z,9.90
2023-05-17T06:49:16.725Z,9.90
2023-05-17T06:51:43.585Z,9.90
2023-05-17T06:54:10.612Z,9.90
2023-05-17T06:56:37.613Z,10.10
2023-05-17T06:59:04.500Z,10.10
2023-05-17T07:01:31.778Z,10.10
2023-05-17T07:03:58.773Z,10.20
2023-05-17T07:06:25.985Z,10.40
2023-05-17T07:08:52.876Z,10.40
2023-05-17T07:11:19.817Z,10.50
2023-05-17T07:13:46.919Z,10.30
2023-05-17T07:16:13.876Z,10.20
2023-05-17T07:18:41.070Z,10.20
2023-05-17T07:21:08.526Z,10.20
2023-05-17T07:23:35.499Z,10.30
2023-05-17T07:26:02.415Z,10.40
2023-05-17T07:28:29.799Z,10.50
2023-05-17T07:30:56.667Z,10.50
2023-05-17T07:33:23.597Z,10.50
2023-05-17T07:35:50.550Z,10.60
2023-05-17T07:38:17.477Z,10.70
2023-05-17T07:40:44.635Z,10.80
2023-05-17T07:43:13.647Z,10.80
2023-05-17T07:45:40.836Z,10.70
2023-05-17T07:48:07.721Z,10.80
2023-05-17T07:50:34.748Z,10.90
2023-05-17T07:53:01.600Z,10.90
2023-05-17T07:55:28.731Z,10.90
2023-05-17T07:57:56.089Z,11.00
2023-05-17T08:00:23.915Z,11.10
2023-05-17T08:02:51.227Z,11.30
2023-05-17T08:05:18.233Z,11.30
2023-05-17T08:07:45.121Z,11.20
2023-05-17T08:10:12.063Z,11.20
2023-05-17T08:12:39.029Z,11.30
2023-05-17T08:15:06.600Z,11.50
2023-05-17T08:17:33.523Z,11.60
2023-05-17T08:20:00.639Z,11.60
2023-05-17T08:22:27.637Z,11.70
2023-05-17T08:24:54.566Z,11.80
2023-05-17T08:27:21.457Z,11.70
2023-05-17T08:29:48.429Z,11.70
2023-05-17T08:32:15.550Z,11.80
2023-05-17T08:34:42.548Z,11.80
2023-05-17T08:37:10.038Z,12.00
2023-05-17T08:39:37.177Z,12.20
2023-05-17T08:42:08.170Z,12.30
2023-05-17T08:44:36.489Z,12.30
2023-05-17T08:47:04.199Z,12.60
2023-05-17T08:49:34.348Z,12.70
2023-05-17T08:52:03.428Z,12.70
2023-05-17T08:54:30.509Z,12.80
2023-05-17T08:57:00.652Z,12.80
2023-05-17T08:59:33.779Z,12.80
2023-05-17T09:02:01.351Z,12.90
2023-05-17T09:04:30.998Z,12.90
2023-05-17T09:06:57.916Z,12.80
2023-05-17T09:09:26.595Z,13.00
2023-05-17T09:11:53.461Z,13.10
2023-05-17T09:14:20.423Z,13.30
2023-05-17T09:16:47.502Z,13.50
2023-05-17T09:19:16.968Z,13.60
2023-05-17T09:21:47.909Z,13.50
2023-05-17T09:24:15.067Z,13.40
2023-05-17T09:26:44.087Z,13.60
2023-05-17T09:29:12.556Z,13.70
2023-05-17T09:31:40.624Z,13.80
2023-05-17T09:34:08.784Z,13.70
2023-05-17T09:36:37.950Z,13.70
2023-05-17T09:39:08.101Z,13.80
2023-05-17T09:41:47.365Z,13.70
2023-05-17T09:44:15.845Z,13.70
2023-05-17T09:46:48.188Z,13.70
2023-05-17T09:49:17.057Z,13.90
2023-05-17T09:51:46.899Z,13.80
2023-05-17T09:54:14.041Z,13.80
2023-05-17T09:56:42.010Z,13.90
2023-05-17T09:59:16.321Z,14.00
2023-05-17T10:01:48.001Z,14.20
2023-05-17T10:04:20.781Z,14.30
2023-05-17T10:06:52.292Z,14.10
2023-05-17T10:09:23.145Z,14.10
2023-05-17T10:11:53.828Z,14.10
2023-05-17T10:14:27.534Z,14.10
2023-05-17T10:16:55.380Z,14.00
2023-05-17T10:19:23.510Z,13.90
2023-05-17T10:21:51.708Z,14.00
2023-05-17T10:24:19.867Z,14.00
2023-05-17T10:26:48.288Z,13.90
2023-05-17T10:29:16.623Z,13.90
2023-05-17T10:31:45.313Z,13.60
2023-05-17T10:34:15.903Z,13.70
2023-05-17T10:36:44.506Z,13.50
2023-05-17T10:39:12.555Z,13.40
2023-05-17T10:41:44.243Z,13.40
2023-05-17T10:44:14.768Z,13.40
2023-05-17T10:46:54.939Z,13.60
2023-05-17T10:49:27.448Z,13.60
2023-05-17T10:51:56.697Z,13.50
2023-05-17T10:54:35.897Z,13.50
2023-05-17T10:57:08.461Z,13.70
2023-05-17T10:59:36.011Z,13.90
2023-05-17T11:02:08.247Z,14.10
2023-05-17T11:04:40.987Z,14.30
2023-05-17T11:07:17.340Z,14.20
2023-05-17T11:09:45.603Z,14.20
2023-05-17T11:12:14.420Z,14.10
2023-05-17T11:14:53.898Z,13.90
2023-05-17T11:17:34.402Z,13.90
2023-05-17T11:20:14.805Z,13.60
2023-05-17T11:22:44.430Z,13.60
2023-05-17T11:25:12.399Z,13.50
2023-05-17T11:27:44.403Z,13.60
2023-05-17T11:30:31.903Z,13.80
2023-05-17T11:33:13.482Z,13.80
2023-05-17T11:35:44.777Z,13.80
2023-05-17T11:38:17.696Z,13.60
2023-05-17T11:40:46.347Z,13.50
2023-05-17T11:43:34.026Z,13.70
2023-05-17T11:46:06.338Z,14.00
2023-05-17T11:48:34.427Z,14.20
2023-05-17T11:51:02.646Z,14.50
2023-05-17T11:53:32.109Z,14.50
2023-05-17T11:56:06.069Z,14.60
2023-05-17T11:58:33.312Z,14.60
2023-05-17T12:01:00.248Z,14.40
2023-05-17T12:03:29.146Z,14.50
2023-05-17T12:06:11.656Z,14.30
2023-05-17T12:08:40.546Z,14.10
2023-05-17T12:11:10.894Z,14.10
2023-05-17T12:13:40.286Z,13.90
2023-05-17T12:16:11.334Z,13.80
2023-05-17T12:18:43.409Z,14.00
2023-05-17T12:21:14.362Z,14.10
2023-05-17T12:23:50.389Z,14.20
2023-05-17T12:26:19.770Z,14.40
2023-05-17T12:28:57.694Z,14.30
2023-05-17T12:31:34.573Z,14.40
2023-05-17T12:34:04.899Z,14.70
2023-05-17T12:36:37.290Z,14.80
2023-05-17T12:39:09.149Z,14.50
2023-05-17T12:41:37.410Z,14.10
2023-05-17T12:44:14.469Z,14.00
2023-05-17T12:46:43.004Z,14.00
2023-05-17T12:49:11.931Z,14.10
2023-05-17T12:51:46.313Z,14.20
2023-05-17T12:54:18.477Z,14.20
2023-05-17T12:56:45.572Z,14.00
2023-05-17T12:59:17.482Z,14.00
2023-05-17T13:01:53.129Z,14.10
2023-05-17T13:04:21.468Z,14.00
2023-05-17T13:06:57.340Z,14.00
2023-05-17T13:09:27.877Z,14.00
2023-05-17T13:11:59.520Z,14.20
2023-05-17T13:14:51.867Z,14.50
2023-05-17T13:17:22.719Z,14.90
2023-05-17T13:19:49.739Z,15.00
2023-05-17T13:22:16.913Z,15.10
2023-05-17T13:24:44.995Z,15.20
2023-05-17T13:27:12.369Z,15.40
2023-05-17T13:29:41.882Z,15.60
2023-05-17T13:32:11.452Z,15.30
2023-05-17T13:34:39.055Z,15.10
2023-05-17T13:37:09.429Z,14.90
2023-05-17T13:39:38.319Z,14.70
2023-05-17T13:42:05.704Z,14.70
2023-05-17T13:44:32.893Z,14.90
2023-05-17T13:46:59.753Z,15.20
2023-05-17T13:49:28.280Z,15.10
2023-05-17T13:51:55.332Z,14.90
2023-05-17T13:54:25.275Z,14.60
2023-05-17T13:56:52.178Z,14.10
2023-05-17T13:59:19.391Z,13.90
2023-05-17T14:01:46.393Z,14.00
2023-05-17T14:04:13.553Z,14.00
2023-05-17T14:06:42.497Z,14.00
2023-05-17T14:09:10.266Z,14.10
2023-05-17T14:11:37.210Z,14.00
2023-05-17T14:14:04.414Z,14.20
2023-05-17T14:16:31.444Z,14.40
2023-05-17T14:18:59.389Z,14.60
2023-05-17T14:23:54.777Z,14.80
2023-05-17T14:26:22.310Z,14.80
2023-05-17T14:28:49.409Z,14.80
2023-05-17T14:31:16.250Z,14.80
2023-05-17T14:33:43.169Z,14.50
2023-05-17T14:36:10.885Z,14.50
2023-05-17T14:38:39.442Z,14.60
2023-05-17T14:41:06.854Z,14.40
2023-05-17T14:43:33.851Z,14.20
2023-05-17T14:46:00.806Z,14.20
2023-05-17T14:48:27.666Z,14.30
2023-05-17T14:50:54.709Z,14.50
2023-05-17T14:53:21.676Z,14.70
2023-05-17T14:55:48.663Z,14.60
2023-05-17T14:58:15.828Z,14.60
2023-05-17T15:00:48.472Z,14.80
2023-05-17T15:03:21.673Z,14.70
2023-05-17T15:05:56.673Z,14.70
2023-05-17T15:08:24.449Z,14.60
2023-05-17T15:10:51.829Z,14.70
2023-05-17T15:13:18.827Z,14.60
2023-05-17T15:15:46.913Z,14.40
2023-05-17T15:18:14.872Z,14.40
2023-05-17T15:20:42.245Z,14.40
2023-05-17T15:23:09.166Z,14.50
2023-05-17T15:25:36.407Z,14.70
2023-05-17T15:28:03.357Z,14.80
2023-05-17T15:30:30.321Z,14.50
2023-05-17T15:32:58.798Z,14.40
2023-05-17T15:35:29.244Z,14.40
2023-05-17T15:37:59.022Z,14.20
2023-05-17T15:40:26.063Z,14.10
2023-05-17T15:42:52.969Z,14.30
2023-05-17T15:45:23.250Z,14.30
2023-05-17T15:47:50.681Z,14.20
2023-05-17T15:50:17.757Z,14.10
2023-05-17T15:52:44.674Z,14.20
2023-05-17T15:55:12.831Z,14.20
2023-05-17T15:57:39.771Z,14.10
2023-05-17T16:00:07.797Z,14.10
2023-05-17T16:02:35.232Z,14.00
2023-05-17T16:05:03.852Z,14.00
2023-05-17T16:07:31.578Z,14.10
2023-05-17T16:09:58.509Z,14.10
2023-05-17T16:12:25.487Z,13.80
2023-05-17T16:14:52.387Z,13.60
2023-05-17T16:17:19.468Z,13.40
2023-05-17T16:19:46.456Z,13.40
2023-05-17T16:22:14.013Z,13.50
2023-05-17T16:24:41.901Z,13.70
2023-05-17T16:27:08.810Z,13.80
2023-05-17T16:29:39.981Z,13.80
2023-05-17T16:32:08.068Z,13.70
2023-05-17T16:34:35.036Z,13.60
2023-05-17T16:37:02.563Z,13.40
2023-05-17T16:39:29.603Z,13.30
2023-05-17T16:41:56.614Z,13.40
2023-05-17T16:44:23.528Z,13.60
2023-05-17T16:46:50.757Z,13.80
2023-05-17T16:49:17.670Z,13.90
2023-05-17T16:51:45.541Z,13.90
2023-05-17T16:54:12.508Z,14.00
2023-05-17T16:56:39.395Z,14.00
2023-05-17T16:59:06.322Z,13.90
2023-05-17T17:01:33.350Z,13.70
2023-05-17T17:04:00.944Z,13.50
2023-05-17T17:06:27.932Z,13.50
2023-05-17T17:08:55.182Z,13.50
2023-05-17T17:11:22.073Z,13.40
2023-05-17T17:13:50.019Z,13.30
2023-05-17T17:16:17.725Z,13.10
2023-05-17T17:18:44.737Z,13.00
2023-05-17T17:21:11.642Z,12.90
2023-05-17T17:23:40.254Z,12.90
2023-05-17T17:26:08.789Z,12.90
2023-05-17T17:28:35.769Z,13.00
2023-05-17T17:31:02.911Z,13.20
2023-05-17T17:33:29.931Z,13.20
2023-05-17T17:35:56.882Z,13.10
2023-05-17T17:38:23.878Z,13.10
2023-05-17T17:40:50.934Z,13.00
2023-05-17T17:43:17.808Z,12.90
2023-05-17T17:45:46.383Z,13.00
2023-05-17T17:48:13.695Z,13.10
2023-05-17T17:50:40.988Z,13.00
2023-05-17T17:53:08.006Z,13.00
2023-05-17T17:55:34.875Z,12.80
2023-05-17T17:58:01.918Z,12.80
2023-05-17T18:00:29.081Z,12.70
2023-05-17T18:02:56.563Z,12.70
2023-05-17T18:05:25.427Z,12.60
2023-05-17T18:07:52.792Z,12.60
2023-05-17T18:10:20.082Z,12.60
2023-05-17T18:12:47.532Z,12.50
2023-05-17T18:15:15.806Z,12.40
2023-05-17T18:17:42.823Z,12.30
2023-05-17T18:20:09.961Z,12.20
2023-05-17T18:22:36.955Z,12.00
2023-05-17T18:25:04.008Z,11.90
2023-05-17T18:27:30.858Z,11.70
2023-05-17T18:29:58.127Z,11.70
2023-05-17T18:32:25.078Z,11.70
2023-05-17T18:34:52.148Z,11.70
2023-05-17T18:37:19.095Z,11.70
2023-05-17T18:39:46.056Z,11.70
2023-05-17T18:42:12.987Z,11.70
2023-05-17T18:44:39.882Z,11.70
2023-05-17T18:47:08.107Z,11.80
2023-05-17T18:49:36.544Z,11.80
2023-05-17T18:52:03.599Z,11.80
2023-05-17T18:54:30.883Z,11.80
2023-05-17T18:56:57.804Z,11.60
2023-05-17T18:59:24.736Z,11.40
2023-05-17T19:01:51.681Z,11.20
2023-05-17T19:04:18.767Z,11.10
2023-05-17T19:06:46.849Z,11.10
2023-05-17T19:09:13.964Z,11.10
2023-05-17T19:11:41.007Z,11.20
2023-05-17T19:14:07.793Z,11.30
2023-05-17T19:16:34.656Z,11.20
2023-05-17T19:19:01.568Z,11.10
2023-05-17T19:21:28.503Z,11.10
2023-05-17T19:23:55.502Z,11.00
2023-05-17T19:26:22.557Z,10.90
2023-05-17T19:28:49.476Z,10.70
2023-05-17T19:31:16.458Z,10.60
2023-05-17T19:33:43.595Z,10.40
2023-05-17T19:36:10.599Z,10.30
2023-05-17T19:38:37.529Z,10.20
2023-05-17T19:41:04.794Z,10.10
2023-05-17T19:43:32.920Z,10.00
2023-05-17T19:45:59.761Z,10.00
2023-05-17T19:48:27.116Z,9.90
2023-05-17T19:50:56.631Z,9.80
2023-05-17T19:53:23.911Z,9.70
2023-05-17T19:55:50.856Z,9.60
2023-05-17T19:58:17.742Z,9.60
2023-05-17T20:00:44.681Z,9.50
2023-05-17T20:03:11.890Z,9.40
2023-05-17T20:05:39.167Z,9.40
2023-05-17T20:08:08.077Z,9.30
2023-05-17T20:10:35.323Z,9.20
2023-05-17T20:13:02.772Z,9.10
2023-05-17T20:15:29.706Z,9.10
2023-05-17T20:17:56.772Z,9.00
2023-05-17T20:20:25.083Z,9.00
2023-05-17T20:22:52.099Z,8.90
2023-05-17T20:25:19.101Z,8.80
2023-05-17T20:27:46.351Z,8.70
2023-05-17T20:30:13.797Z,8.60
2023-05-17T20:32:41.148Z,8.50
2023-05-17T20:35:08.342Z,8.40
2023-05-17T20:37:35.971Z,8.40
2023-05-17T20:40:04.692Z,8.40
2023-05-17T20:42:32.376Z,8.30
2023-05-17T20:44:59.317Z,8.30
2023-05-17T20:47:26.406Z,8.20
2023-05-17T20:49:53.283Z,8.20
2023-05-17T20:52:31.684Z,8.10
2023-05-17T20:55:07.922Z,8.10
2023-05-17T20:57:34.794Z,8.00
2023-05-17T21:00:02.402Z,8.00
2023-05-17T21:02:29.348Z,7.90
2023-05-17T21:04:56.187Z,7.80
2023-05-17T21:07:26.426Z,7.70
2023-05-17T21:09:53.337Z,7.70
2023-05-17T21:12:21.446Z,7.60
2023-05-17T21:15:00.518Z,7.60
2023-05-17T21:17:35.451Z,7.50
2023-05-17T21:20:02.301Z,7.50
2023-05-17T21:22:29.182Z,7.50
2023-05-17T21:24:56.163Z,7.50
2023-05-17T21:27:23.055Z,7.50
2023-05-17T21:29:49.918Z,7.40
2023-05-17T21:32:17.154Z,7.50
2023-05-17T21:34:44.934Z,7.50
2023-05-17T21:37:12.051Z,7.50
2023-05-17T21:39:39.123Z,7.50
2023-05-17T21:42:06.444Z,7.50
2023-05-17T21:44:33.302Z,7.40
2023-05-17T21:47:00.491Z,7.40
2023-05-17T21:49:28.563Z,7.30
2023-05-17T21:51:55.544Z,7.20
2023-05-17T21:54:24.827Z,7.20
2023-05-17T21:56:51.978Z,7.10
2023-05-17T21:59:18.898Z,7.10
2023-05-17T22:01:46.031Z,7.10
2023-05-17T22:04:13.046Z,7.20
2023-05-17T22:06:39.924Z,7.10
2023-05-17T22:09:07.287Z,7.10
2023-05-17T22:11:38.269Z,7.10
2023-05-17T22:14:07.990Z,7.10
2023-05-17T22:16:36.294Z,7.10
2023-05-17T22:19:04.093Z,7.00
2023-05-17T22:21:32.218Z,6.90
2023-05-17T22:23:59.318Z,6.80
2023-05-17T22:26:27.745Z,6.80
2023-05-17T22:28:55.738Z,6.70
2023-05-17T22:31:22.944Z,6.60
2023-05-17T22:33:50.492Z,6.50
2023-05-17T22:36:19.127Z,6.40
2023-05-17T22:38:46.414Z,6.40
2023-05-17T22:41:13.713Z,6.30
2023-05-17T22:43:40.911Z,6.30
2023-05-17T22:46:07.798Z,6.30
2023-05-17T22:48:37.453Z,6.20
2023-05-17T22:51:04.665Z,6.20
2023-05-17T22:53:31.891Z,6.10
2023-05-17T22:55:58.947Z,6.10
2023-05-17T22:58:25.960Z,6.00
2023-05-17T23:00:53.331Z,6.10
2023-05-17T23:03:20.898Z,6.00
2023-05-17T23:05:48.302Z,6.10
2023-05-17T23:08:18.008Z,6.00
2023-05-17T23:10:44.940Z,6.00
2023-05-17T23:13:13.000Z,6.10
2023-05-17T23:15:40.896Z,6.10
2023-05-17T23:18:08.222Z,5.90
2023-05-17T23:20:35.277Z,5.90
2023-05-17T23:23:02.227Z,5.80
2023-05-17T23:25:29.679Z,5.70
2023-05-17T23:27:59.893Z,5.60
2023-05-17T23:30:27.601Z,5.60
2023-05-17T23:32:55.306Z,5.50
2023-05-17T23:35:24.081Z,5.50
2023-05-17T23:37:50.919Z,5.50
2023-05-17T23:40:17.902Z,5.50
2023-05-17T23:42:44.816Z,5.50
2023-05-17T23:45:11.733Z,5.50
2023-05-17T23:47:40.929Z,5.40
2023-05-17T23:50:12.410Z,5.40
2023-05-17T23:52:41.188Z,5.40
2023-05-17T23:55:09.007Z,5.30
2023-05-17T23:57:36.112Z,5.30
